createdAt,value
2019-03-31T00:00:35.038Z,97394.28
2019-03-31T00:03:08.272Z,97395.36
2019-03-31T00:05:40.349Z,97390.18
2019-03-31T00:08:12.729Z,97392.57
2019-03-31T00:10:44.787Z,97392.27
2019-03-31T00:13:17.361Z,97397.02
2019-03-31T00:15:49.617Z,97389.91
2019-03-31T00:18:21.972Z,97389.13
2019-03-31T00:20:54.042Z,97388.80
2019-03-31T00:23:26.098Z,97393.84
2019-03-31T00:25:58.181Z,97393.70
2019-03-31T00:28:30.199Z,97395.60
2019-03-31T00:31:02.223Z,97393.88
2019-03-31T00:33:34.233Z,97385.22
2019-03-31T00:36:06.166Z,97391.14
2019-03-31T00:38:38.118Z,97392.57
2019-03-31T00:41:10.620Z,97388.15
2019-03-31T00:43:42.833Z,97389.20
2019-03-31T00:46:15.264Z,97388.51
2019-03-31T00:48:47.294Z,97388.66
2019-03-31T00:51:19.310Z,97378.65
2019-03-31T00:53:51.418Z,97391.80
2019-03-31T00:56:23.500Z,97390.48
2019-03-31T00:58:55.772Z,97384.72
2019-03-31T01:01:40.282Z,97389.17
2019-03-31T01:04:13.439Z,97390.39
2019-03-31T01:06:48.745Z,97381.83
2019-03-31T01:09:28.801Z,97390.39
2019-03-31T01:12:02.395Z,97389.83
2019-03-31T01:14:35.160Z,97394.14
2019-03-31T01:17:10.161Z,97385.44
2019-03-31T01:19:42.188Z,97391.91
2019-03-31T01:22:14.456Z,97378.81
2019-03-31T01:24:46.830Z,97382.38
2019-03-31T01:27:18.877Z,97386.48
2019-03-31T01:29:51.351Z,97380.64
2019-03-31T01:32:23.639Z,97382.73
2019-03-31T01:34:57.474Z,97380.25
2019-03-31T01:37:29.817Z,97383.66
2019-03-31T01:40:02.491Z,97384.23
2019-03-31T01:42:34.777Z,97386.23
2019-03-31T01:45:07.520Z,97386.87
2019-03-31T01:47:40.088Z,97380.20
2019-03-31T01:50:14.886Z,97386.26
2019-03-31T01:52:46.975Z,97386.97
2019-03-31T01:55:19.195Z,97384.77
2019-03-31T01:57:51.292Z,97387.16
2019-03-31T02:00:39.171Z,97393.14
2019-03-31T02:03:11.659Z,97388.13
2019-03-31T02:05:44.037Z,97383.94
2019-03-31T02:08:16.162Z,97390.27
2019-03-31T02:10:48.793Z,97393.14
2019-03-31T02:13:20.796Z,97385.59
2019-03-31T02:15:52.855Z,97391.41
2019-03-31T02:18:24.864Z,97387.77
2019-03-31T02:20:57.355Z,97391.34
2019-03-31T02:23:30.075Z,97387.81
2019-03-31T02:26:02.079Z,97384.90
2019-03-31T02:28:34.021Z,97379.52
2019-03-31T02:31:08.768Z,97377.66
2019-03-31T02:33:40.716Z,97386.05
2019-03-31T02:36:14.072Z,97383.80
2019-03-31T02:38:46.004Z,97383.42
2019-03-31T02:41:19.584Z,97384.20
2019-03-31T02:43:51.565Z,97375.62
2019-03-31T02:46:23.736Z,97385.72
2019-03-31T02:48:55.769Z,97375.12
2019-03-31T02:51:27.995Z,97381.13
2019-03-31T02:54:00.050Z,97377.87
2019-03-31T02:56:34.114Z,97381.27
2019-03-31T02:59:06.661Z,97378.55
2019-03-31T03:01:39.433Z,97376.96
2019-03-31T03:04:13.659Z,97379.71
2019-03-31T03:06:47.567Z,97373.43
2019-03-31T03:09:23.453Z,97371.51
2019-03-31T03:11:58.870Z,97377.30
2019-03-31T03:14:37.336Z,97367.45
2019-03-31T03:17:09.826Z,97375.50
2019-03-31T03:19:41.764Z,97373.00
2019-03-31T03:22:13.868Z,97371.28
2019-03-31T03:24:45.831Z,97372.55
2019-03-31T03:27:17.796Z,97371.98
2019-03-31T03:29:49.721Z,97377.48
2019-03-31T03:32:21.772Z,97372.26
2019-03-31T03:34:53.848Z,97369.31
2019-03-31T03:37:25.908Z,97367.28
2019-03-31T03:39:57.902Z,97369.70
2019-03-31T03:42:30.197Z,97367.28
2019-03-31T03:45:03.541Z,97369.12
2019-03-31T03:47:35.564Z,97375.14
2019-03-31T03:50:07.791Z,97374.00
2019-03-31T03:52:39.852Z,97368.65
2019-03-31T03:55:11.956Z,97371.91
2019-03-31T03:57:43.935Z,97371.55
2019-03-31T04:00:16.494Z,97371.30
2019-03-31T04:02:48.533Z,97370.98
2019-03-31T04:05:21.541Z,97369.80
2019-03-31T04:07:53.546Z,97371.59
2019-03-31T04:11:11.418Z,97367.34
2019-03-31T04:13:43.533Z,97363.32
2019-03-31T04:16:15.621Z,97365.89
2019-03-31T04:18:48.347Z,97364.76
2019-03-31T04:21:20.551Z,97362.77
2019-03-31T04:23:52.619Z,97361.66
2019-03-31T04:26:24.891Z,97360.98
2019-03-31T04:28:56.976Z,97364.41
2019-03-31T04:31:29.051Z,97366.94
2019-03-31T04:34:01.030Z,97360.96
2019-03-31T04:36:33.017Z,97359.13
2019-03-31T04:39:07.004Z,97357.86
2019-03-31T04:41:39.026Z,97362.17
2019-03-31T04:44:10.987Z,97368.29
2019-03-31T04:46:42.941Z,97374.26
2019-03-31T04:49:14.919Z,97373.92
2019-03-31T04:51:46.857Z,97368.16
2019-03-31T04:54:19.140Z,97370.45
2019-03-31T04:56:51.114Z,97374.27
2019-03-31T04:59:23.442Z,97376.41
2019-03-31T05:01:55.481Z,97376.75
2019-03-31T05:04:27.453Z,97379.16
2019-03-31T05:07:08.710Z,97377.00
2019-03-31T05:09:40.937Z,97384.72
2019-03-31T05:12:16.690Z,97386.59
2019-03-31T05:14:47.050Z,97381.75
2019-03-31T05:17:19.183Z,97382.88
2019-03-31T05:19:51.507Z,97388.66
2019-03-31T05:22:23.572Z,97386.05
2019-03-31T05:24:56.214Z,97383.17
2019-03-31T05:27:28.262Z,97382.48
2019-03-31T05:30:00.586Z,97387.72
2019-03-31T05:32:32.647Z,97390.72
2019-03-31T05:35:04.925Z,97392.19
2019-03-31T05:37:50.348Z,97389.23
2019-03-31T05:40:10.844Z,97387.81
2019-03-31T05:42:43.066Z,97383.24
2019-03-31T05:45:15.281Z,97385.69
2019-03-31T05:47:47.379Z,97393.70
2019-03-31T05:50:19.382Z,97391.45
2019-03-31T05:52:51.351Z,97387.45
2019-03-31T05:55:23.297Z,97395.69
2019-03-31T05:57:55.250Z,97387.55
2019-03-31T06:00:40.125Z,97384.45
2019-03-31T06:03:12.404Z,97385.89
2019-03-31T06:05:44.570Z,97385.84
2019-03-31T06:08:16.656Z,97383.04
2019-03-31T06:10:49.297Z,97390.83
2019-03-31T06:13:21.246Z,97385.77
2019-03-31T06:15:53.659Z,97387.84
2019-03-31T06:18:25.762Z,97385.07
2019-03-31T06:20:57.827Z,97392.96
2019-03-31T06:23:30.106Z,97385.97
2019-03-31T06:26:02.129Z,97382.91
2019-03-31T06:28:34.174Z,97380.38
2019-03-31T06:31:06.260Z,97382.65
2019-03-31T06:33:38.265Z,97383.88
2019-03-31T06:36:10.302Z,97385.56
2019-03-31T06:38:42.254Z,97385.50
2019-03-31T06:41:14.704Z,97382.88
2019-03-31T06:43:47.380Z,97376.84
2019-03-31T06:46:19.447Z,97380.33
2019-03-31T06:48:51.523Z,97379.52
2019-03-31T06:51:23.506Z,97377.50
2019-03-31T06:53:55.587Z,97373.69
2019-03-31T06:56:27.734Z,97382.02
2019-03-31T06:59:00.106Z,97388.30
2019-03-31T07:01:32.096Z,97387.60
2019-03-31T07:04:04.218Z,97389.47
2019-03-31T07:06:36.194Z,97394.34
2019-03-31T07:09:09.158Z,97390.67
2019-03-31T07:11:41.442Z,97389.41
2019-03-31T07:14:13.411Z,97389.73
2019-03-31T07:16:45.514Z,97392.98
2019-03-31T07:19:17.845Z,97393.44
2019-03-31T07:21:49.955Z,97389.11
2019-03-31T07:24:21.927Z,97383.78
2019-03-31T07:26:54.195Z,97394.16
2019-03-31T07:29:26.158Z,97390.73
2019-03-31T07:31:59.178Z,97392.20
2019-03-31T07:34:31.175Z,97397.39
2019-03-31T07:37:03.107Z,97396.09
2019-03-31T07:39:35.827Z,97401.70
2019-03-31T07:42:08.329Z,97407.36
2019-03-31T07:44:40.395Z,97401.31
2019-03-31T07:47:12.618Z,97389.91
2019-03-31T07:49:44.664Z,97399.31
2019-03-31T07:52:17.000Z,97401.11
2019-03-31T07:54:49.232Z,97399.33
2019-03-31T07:57:21.237Z,97396.66
2019-03-31T07:59:56.431Z,97400.16
2019-03-31T08:02:27.484Z,97390.96
2019-03-31T08:04:59.594Z,97393.16
2019-03-31T08:07:31.688Z,97396.76
2019-03-31T08:10:03.837Z,97398.54
2019-03-31T08:12:35.914Z,97397.03
2019-03-31T08:15:09.511Z,97385.28
2019-03-31T08:17:42.857Z,97380.38
2019-03-31T08:20:16.463Z,97376.89
2019-03-31T08:22:48.671Z,97381.98
2019-03-31T08:25:22.777Z,97374.91
2019-03-31T08:27:54.830Z,97385.46
2019-03-31T08:30:26.807Z,97385.80
2019-03-31T08:32:58.872Z,97383.28
2019-03-31T08:35:31.004Z,97382.80
2019-03-31T08:38:03.410Z,97388.34
2019-03-31T08:40:35.404Z,97384.00
2019-03-31T08:43:07.465Z,97387.52
2019-03-31T08:45:39.506Z,97378.30
2019-03-31T08:48:11.552Z,97380.27
2019-03-31T08:50:43.533Z,97389.14
2019-03-31T08:53:15.621Z,97385.04
2019-03-31T08:55:47.562Z,97378.06
2019-03-31T08:58:19.694Z,97383.41
2019-03-31T09:00:57.713Z,97374.73
2019-03-31T09:03:29.698Z,97382.80
2019-03-31T09:06:02.695Z,97379.44
2019-03-31T09:08:35.102Z,97373.66
2019-03-31T09:11:08.155Z,97377.77
2019-03-31T09:13:40.310Z,97372.09
2019-03-31T09:16:12.266Z,97380.32
2019-03-31T09:18:44.204Z,97378.63
2019-03-31T09:21:16.605Z,97384.44
2019-03-31T09:23:48.563Z,97378.30
2019-03-31T09:26:20.503Z,97375.80
2019-03-31T09:28:52.593Z,97368.71
2019-03-31T09:31:24.721Z,97364.19
2019-03-31T09:33:56.794Z,97367.02
2019-03-31T09:36:28.849Z,97369.75
2019-03-31T09:39:00.844Z,97366.55
2019-03-31T09:41:34.325Z,97365.59
2019-03-31T09:44:07.226Z,97363.19
2019-03-31T09:46:40.486Z,97369.48
2019-03-31T09:49:12.546Z,97365.97
2019-03-31T09:51:44.542Z,97362.25
2019-03-31T09:54:16.677Z,97363.27
2019-03-31T09:56:48.976Z,97354.51
2019-03-31T09:59:21.052Z,97357.38
2019-03-31T10:01:53.240Z,97358.75
2019-03-31T10:04:25.657Z,97350.97
2019-03-31T10:06:58.160Z,97352.23
2019-03-31T10:09:30.751Z,97343.36
2019-03-31T10:12:02.817Z,97339.06
2019-03-31T10:14:34.795Z,97335.27
2019-03-31T10:17:06.845Z,97332.30
2019-03-31T10:19:39.465Z,97336.99
2019-03-31T10:22:11.493Z,97337.25
2019-03-31T10:24:43.460Z,97331.90
2019-03-31T10:27:15.501Z,97332.30
2019-03-31T10:29:47.475Z,97322.93
2019-03-31T10:32:19.511Z,97326.88
2019-03-31T10:34:51.473Z,97323.70
2019-03-31T10:37:23.934Z,97315.59
2019-03-31T10:39:55.921Z,97313.86
2019-03-31T10:42:27.970Z,97318.50
2019-03-31T10:45:00.020Z,97309.17
2019-03-31T10:47:32.676Z,97305.04
2019-03-31T10:50:05.561Z,97304.74
2019-03-31T10:52:37.862Z,97304.44
2019-03-31T10:55:10.610Z,97298.41
2019-03-31T10:57:42.714Z,97291.08
2019-03-31T11:00:19.034Z,97296.67
2019-03-31T11:02:51.337Z,97299.94
2019-03-31T11:05:23.405Z,97294.78
2019-03-31T11:07:55.343Z,97297.28
2019-03-31T11:10:27.508Z,97287.27
2019-03-31T11:12:59.573Z,97281.63
2019-03-31T11:15:31.620Z,97284.64
2019-03-31T11:18:04.127Z,97283.70
2019-03-31T11:20:36.664Z,97276.97
2019-03-31T11:23:27.608Z,97279.47
2019-03-31T11:25:59.739Z,97275.94
2019-03-31T11:28:32.041Z,97271.67
2019-03-31T11:31:04.540Z,97274.34
2019-03-31T11:33:36.511Z,97275.48
2019-03-31T11:36:08.567Z,97274.37
2019-03-31T11:38:40.736Z,97268.03
2019-03-31T11:41:12.819Z,97262.16
2019-03-31T11:43:44.985Z,97271.33
2019-03-31T11:46:18.092Z,97262.71
2019-03-31T11:48:50.484Z,97256.06
2019-03-31T11:51:22.559Z,97259.17
2019-03-31T11:53:54.780Z,97263.59
2019-03-31T11:56:26.931Z,97252.44
2019-03-31T11:58:59.395Z,97254.63
2019-03-31T12:01:31.500Z,97260.85
2019-03-31T12:04:03.700Z,97256.90
2019-03-31T12:06:35.701Z,97255.97
2019-03-31T12:09:09.861Z,97245.64
2019-03-31T12:11:45.385Z,97249.55
2019-03-31T12:14:16.175Z,97244.33
2019-03-31T12:16:48.532Z,97240.75
2019-03-31T12:19:20.583Z,97237.54
2019-03-31T12:21:52.599Z,97237.31
2019-03-31T12:24:24.745Z,97235.27
2019-03-31T12:26:56.850Z,97233.08
2019-03-31T12:29:28.836Z,97237.09
2019-03-31T12:32:01.568Z,97227.97
2019-03-31T12:34:33.643Z,97226.51
2019-03-31T12:37:05.903Z,97224.53
2019-03-31T12:39:38.529Z,97225.06
2019-03-31T12:42:10.851Z,97220.74
2019-03-31T12:44:42.927Z,97220.76
2019-03-31T12:47:15.476Z,97213.07
2019-03-31T12:49:47.742Z,97217.73
2019-03-31T12:52:19.752Z,97211.41
2019-03-31T12:54:52.169Z,97209.73
2019-03-31T12:57:24.241Z,97205.75
2019-03-31T12:59:56.344Z,97202.25
2019-03-31T13:02:28.370Z,97197.24
2019-03-31T13:05:00.442Z,97195.83
2019-03-31T13:07:32.475Z,97191.78
2019-03-31T13:10:04.826Z,97191.64
2019-03-31T13:12:37.000Z,97194.85
2019-03-31T13:15:09.471Z,97192.69
2019-03-31T13:17:41.645Z,97181.94
2019-03-31T13:20:14.521Z,97174.78
2019-03-31T13:22:46.602Z,97174.79
2019-03-31T13:25:18.835Z,97174.94
2019-03-31T13:27:50.943Z,97162.34
2019-03-31T13:30:23.096Z,97166.78
2019-03-31T13:32:55.245Z,97158.57
2019-03-31T13:35:27.433Z,97165.45
2019-03-31T13:38:10.355Z,97163.84
2019-03-31T13:40:33.662Z,97160.77
2019-03-31T13:43:05.948Z,97162.83
2019-03-31T13:45:38.608Z,97155.16
2019-03-31T13:48:11.034Z,97153.86
2019-03-31T13:50:43.047Z,97153.52
2019-03-31T13:53:16.926Z,97150.62
2019-03-31T13:55:50.461Z,97153.70
2019-03-31T13:58:23.968Z,97153.59
2019-03-31T14:00:57.635Z,97141.27
2019-03-31T14:03:31.350Z,97140.34
2019-03-31T14:06:03.368Z,97140.15
2019-03-31T14:08:35.445Z,97135.58
2019-03-31T14:11:08.177Z,97133.08
2019-03-31T14:13:40.544Z,97132.81
2019-03-31T14:16:12.733Z,97122.87
2019-03-31T14:18:44.819Z,97132.63
2019-03-31T14:21:17.138Z,97126.42
2019-03-31T14:23:49.319Z,97120.66
2019-03-31T14:26:21.388Z,97121.90
2019-03-31T14:28:53.412Z,97111.30
2019-03-31T14:31:25.510Z,97116.59
2019-03-31T14:33:57.694Z,97114.00
2019-03-31T14:36:30.181Z,97113.07
2019-03-31T14:39:05.444Z,97120.25
2019-03-31T14:41:37.758Z,97107.23
2019-03-31T14:44:10.831Z,97101.69
2019-03-31T14:46:43.944Z,97105.00
2019-03-31T14:49:16.486Z,97103.75
2019-03-31T14:51:48.557Z,97101.45
2019-03-31T14:54:20.945Z,97106.95
2019-03-31T14:56:53.113Z,97112.24
2019-03-31T14:59:25.285Z,97104.69
2019-03-31T15:01:57.942Z,97100.56
2019-03-31T15:04:29.952Z,97102.33
2019-03-31T15:07:02.067Z,97098.27
2019-03-31T15:09:34.147Z,97097.66
2019-03-31T15:12:06.239Z,97097.78
2019-03-31T15:14:38.330Z,97093.80
2019-03-31T15:17:10.465Z,97099.66
2019-03-31T15:19:42.521Z,97102.55
2019-03-31T15:22:14.542Z,97104.17
2019-03-31T15:24:46.554Z,97103.23
2019-03-31T15:27:18.745Z,97102.32
2019-03-31T15:29:51.900Z,97103.63
2019-03-31T15:32:24.060Z,97103.16
2019-03-31T15:34:56.521Z,97098.95
2019-03-31T15:37:28.710Z,97096.36
2019-03-31T15:40:01.090Z,97102.69
2019-03-31T15:42:33.113Z,97102.92
2019-03-31T15:45:05.749Z,97098.42
2019-03-31T15:47:38.000Z,97095.92
2019-03-31T15:50:10.635Z,97091.13
2019-03-31T15:52:42.882Z,97096.45
2019-03-31T15:55:15.520Z,97095.86
2019-03-31T15:57:47.640Z,97090.28
2019-03-31T16:00:20.709Z,97090.60
2019-03-31T16:02:53.155Z,97082.80
2019-03-31T16:05:25.377Z,97084.56
2019-03-31T16:07:56.735Z,97081.89
2019-03-31T16:10:29.065Z,97089.98
2019-03-31T16:13:00.443Z,97088.44
2019-03-31T16:15:31.995Z,97094.63
2019-03-31T16:18:03.476Z,97092.13
2019-03-31T16:20:34.739Z,97086.73
2019-03-31T16:23:06.694Z,97090.16
2019-03-31T16:25:40.663Z,97090.83
2019-03-31T16:28:11.935Z,97087.55
2019-03-31T16:30:43.499Z,97086.39
2019-03-31T16:33:15.884Z,97100.33
2019-03-31T16:35:48.374Z,97091.63
2019-03-31T16:38:19.621Z,97092.53
2019-03-31T16:40:51.014Z,97099.48
2019-03-31T16:43:23.382Z,97097.39
2019-03-31T16:45:54.745Z,97103.39
2019-03-31T16:48:26.101Z,97105.75
2019-03-31T16:50:57.488Z,97100.17
2019-03-31T16:53:28.803Z,97097.48
2019-03-31T16:56:02.000Z,97100.70
2019-03-31T16:58:33.296Z,97102.72
2019-03-31T17:01:05.080Z,97100.08
2019-03-31T17:03:36.827Z,97100.87
2019-03-31T17:06:08.913Z,97100.95
2019-03-31T17:08:40.135Z,97106.23
2019-03-31T17:11:11.366Z,97099.88
2019-03-31T17:13:42.568Z,97099.05
2019-03-31T17:16:15.533Z,97105.25
2019-03-31T17:18:46.983Z,97099.11
2019-03-31T17:21:18.343Z,97108.64
2019-03-31T17:23:49.579Z,97107.94
2019-03-31T17:26:20.908Z,97113.37
2019-03-31T17:28:52.540Z,97115.81
2019-03-31T17:31:23.910Z,97119.02
2019-03-31T17:33:55.369Z,97123.95
2019-03-31T17:36:26.724Z,97127.50
2019-03-31T17:38:57.949Z,97123.73
2019-03-31T17:41:29.212Z,97128.55
2019-03-31T17:44:00.468Z,97125.97
2019-03-31T17:46:31.816Z,97136.45
2019-03-31T17:49:03.863Z,97133.47
2019-03-31T17:51:35.167Z,97132.10
2019-03-31T17:54:06.675Z,97133.04
2019-03-31T17:56:37.834Z,97137.92
2019-03-31T17:59:09.326Z,97135.80
2019-03-31T18:01:41.043Z,97134.97
2019-03-31T18:04:12.250Z,97141.03
2019-03-31T18:06:43.601Z,97135.87
2019-03-31T18:09:15.117Z,97143.63
2019-03-31T18:11:46.591Z,97145.27
2019-03-31T18:14:18.887Z,97148.73
2019-03-31T18:16:50.242Z,97155.61
2019-03-31T18:19:21.928Z,97157.75
2019-03-31T18:21:53.681Z,97159.70
2019-03-31T18:24:24.998Z,97161.39
2019-03-31T18:26:56.308Z,97163.16
2019-03-31T18:29:27.486Z,97163.75
2019-03-31T18:31:58.849Z,97161.33
2019-03-31T18:34:30.504Z,97161.28
2019-03-31T18:37:01.774Z,97160.78
2019-03-31T18:39:34.081Z,97168.91
2019-03-31T18:42:05.445Z,97177.89
2019-03-31T18:44:37.074Z,97181.29
2019-03-31T18:47:08.476Z,97187.33
2019-03-31T18:49:39.719Z,97189.92
2019-03-31T18:52:11.300Z,97185.59
2019-03-31T18:55:00.352Z,97183.44
2019-03-31T18:57:39.812Z,97186.03
2019-03-31T19:00:39.457Z,97195.15
2019-03-31T19:03:31.575Z,97193.39
2019-03-31T19:06:22.382Z,97194.27
2019-03-31T19:08:59.796Z,97201.25
2019-03-31T19:12:02.304Z,97204.29
2019-03-31T19:14:52.482Z,97203.44
2019-03-31T19:17:41.498Z,97205.56
2019-03-31T19:20:27.955Z,97211.64
2019-03-31T19:23:24.288Z,97205.53
2019-03-31T19:26:13.317Z,97208.14
2019-03-31T19:29:06.292Z,97215.05
2019-03-31T19:31:55.966Z,97212.52
2019-03-31T19:34:55.463Z,97216.00
2019-03-31T19:37:48.526Z,97224.64
2019-03-31T19:40:44.859Z,97222.97
2019-03-31T19:43:33.187Z,97227.27
2019-03-31T19:46:19.508Z,97226.02
2019-03-31T19:49:05.536Z,97228.16
2019-03-31T19:51:55.819Z,97227.32
2019-03-31T19:54:58.439Z,97237.66
2019-03-31T19:57:48.970Z,97238.53
2019-03-31T20:00:33.614Z,97237.23
2019-03-31T20:03:27.426Z,97246.30
2019-03-31T20:06:16.324Z,97240.27
2019-03-31T20:09:07.151Z,97236.36
2019-03-31T20:11:52.122Z,97241.14
2019-03-31T20:14:41.294Z,97236.36
2019-03-31T20:17:33.761Z,97242.84
2019-03-31T20:20:12.815Z,97253.18
2019-03-31T20:23:01.997Z,97243.70
2019-03-31T20:25:55.436Z,97246.70
2019-03-31T20:29:04.353Z,97259.59
2019-03-31T20:32:13.061Z,97258.30
2019-03-31T20:35:01.726Z,97258.33
2019-03-31T20:38:00.535Z,97268.64
2019-03-31T20:40:50.614Z,97255.27
2019-03-31T20:43:31.517Z,97262.98
2019-03-31T20:46:04.523Z,97261.23
2019-03-31T20:48:37.174Z,97255.16
2019-03-31T20:51:08.845Z,97261.61
2019-03-31T20:53:40.168Z,97259.90
2019-03-31T20:56:11.707Z,97250.39
2019-03-31T20:58:43.008Z,97263.72
2019-03-31T21:01:14.698Z,97274.45
2019-03-31T21:03:46.091Z,97272.26
2019-03-31T21:06:17.383Z,97264.91
2019-03-31T21:08:49.090Z,97276.50
2019-03-31T21:11:20.289Z,97278.21
2019-03-31T21:13:51.847Z,97283.33
2019-03-31T21:16:23.164Z,97280.69
2019-03-31T21:18:54.365Z,97290.60
2019-03-31T21:21:25.861Z,97284.56
2019-03-31T21:23:57.417Z,97287.12
2019-03-31T21:26:28.823Z,97291.41
2019-03-31T21:29:00.081Z,97291.80
2019-03-31T21:31:31.350Z,97288.31
2019-03-31T21:34:02.782Z,97283.63
2019-03-31T21:36:34.150Z,97288.73
2019-03-31T21:39:07.723Z,97288.17
2019-03-31T21:41:40.441Z,97289.84
2019-03-31T21:44:11.804Z,97285.10
2019-03-31T21:46:43.228Z,97288.59
2019-03-31T21:49:15.267Z,97295.38
2019-03-31T21:51:46.626Z,97293.60
2019-03-31T21:54:18.042Z,97297.43
2019-03-31T21:56:49.324Z,97289.23
2019-03-31T21:59:21.245Z,97299.52
2019-03-31T22:01:52.642Z,97299.09
2019-03-31T22:04:24.303Z,97291.27
2019-03-31T22:06:55.458Z,97292.81
2019-03-31T22:09:26.760Z,97290.64
2019-03-31T22:11:57.930Z,97299.27
2019-03-31T22:14:30.200Z,97290.64
2019-03-31T22:17:01.464Z,97292.26
2019-03-31T22:19:32.801Z,97292.20
2019-03-31T22:22:04.329Z,97287.00
2019-03-31T22:24:35.518Z,97288.75
2019-03-31T22:27:06.998Z,97290.34
2019-03-31T22:29:38.452Z,97297.92
2019-03-31T22:32:10.140Z,97294.06
2019-03-31T22:34:41.347Z,97297.88
2019-03-31T22:37:12.574Z,97298.33
2019-03-31T22:39:43.923Z,97298.70
2019-03-31T22:42:16.467Z,97291.42
2019-03-31T22:44:47.718Z,97292.14
2019-03-31T22:47:19.352Z,97295.48
2019-03-31T22:49:50.537Z,97291.57
2019-03-31T22:52:21.777Z,97289.73
2019-03-31T22:54:53.207Z,97289.69
2019-03-31T22:57:24.610Z,97287.45
2019-03-31T22:59:56.006Z,97283.12
2019-03-31T23:02:27.446Z,97282.06
2019-03-31T23:04:58.857Z,97285.45
2019-03-31T23:07:30.437Z,97287.20
2019-03-31T23:10:02.186Z,97278.95
2019-03-31T23:12:33.731Z,97285.67
2019-03-31T23:15:05.252Z,97279.98
2019-03-31T23:17:36.728Z,97281.27
2019-03-31T23:20:08.149Z,97285.98
2019-03-31T23:22:39.756Z,97282.53
2019-03-31T23:25:11.456Z,97286.25
2019-03-31T23:27:42.894Z,97295.66
2019-03-31T23:30:14.397Z,97292.06
2019-03-31T23:32:45.556Z,97284.36
2019-03-31T23:35:17.249Z,97288.55
2019-03-31T23:37:48.373Z,97286.30
2019-03-31T23:40:19.643Z,97293.55
2019-03-31T23:42:51.188Z,97292.20
2019-03-31T23:45:22.400Z,97289.52
2019-03-31T23:47:54.559Z,97293.75
2019-03-31T23:50:25.751Z,97291.59
2019-03-31T23:52:56.846Z,97292.33
2019-03-31T23:55:28.004Z,97284.53
2019-03-31T23:57:59.156Z,97295.23
